createdAt,value
2022-12-01T00:01:02.944Z,102852.03
2022-12-01T00:03:32.980Z,102847.72
2022-12-01T00:06:01.153Z,102846.00
2022-12-01T00:08:28.994Z,102841.69
2022-12-01T00:10:55.534Z,102842.56
2022-12-01T00:13:22.292Z,102846.03
2022-12-01T00:15:48.678Z,102839.16
2022-12-01T00:18:15.069Z,102839.16
2022-12-01T00:20:41.400Z,102844.34
2022-12-01T00:23:07.749Z,102840.91
2022-12-01T00:25:34.119Z,102843.47
2022-12-01T00:28:00.587Z,102842.59
2022-12-01T00:30:26.968Z,102840.91
2022-12-01T00:32:53.296Z,102844.34
2022-12-01T00:35:19.692Z,102846.06
2022-12-01T00:37:46.067Z,102838.31
2022-12-01T00:40:13.046Z,102841.75
2022-12-01T00:42:39.384Z,102840.06
2022-12-01T00:45:06.329Z,102840.06
2022-12-01T00:47:32.658Z,102847.81
2022-12-01T00:49:59.047Z,102844.31
2022-12-01T00:52:25.417Z,102839.19
2022-12-01T00:54:51.743Z,102842.63
2022-12-01T00:57:18.061Z,102838.34
2022-12-01T00:59:44.372Z,102834.03
2022-12-01T01:02:10.824Z,102846.09
2022-12-01T01:04:37.575Z,102845.19
2022-12-01T01:07:03.979Z,102845.22
2022-12-01T01:09:31.759Z,102847.81
2022-12-01T01:11:58.115Z,102852.97
2022-12-01T01:14:24.549Z,102852.09
2022-12-01T01:16:51.106Z,102856.41
2022-12-01T01:19:17.908Z,102850.38
2022-12-01T01:21:44.360Z,102856.41
2022-12-01T01:24:10.727Z,102852.94
2022-12-01T01:26:37.813Z,102852.97
2022-12-01T01:29:09.142Z,102865.03
2022-12-01T01:31:36.516Z,102863.28
2022-12-01T01:34:03.745Z,102855.53
2022-12-01T01:36:30.233Z,102864.13
2022-12-01T01:38:56.727Z,102867.59
2022-12-01T01:41:23.707Z,102864.16
2022-12-01T01:43:59.027Z,102862.44
2022-12-01T01:46:35.136Z,102863.28
2022-12-01T01:49:08.195Z,102865.00
2022-12-01T01:51:48.942Z,102858.13
2022-12-01T01:54:32.988Z,102862.44
2022-12-01T01:57:01.606Z,102861.56
2022-12-01T01:59:43.961Z,102862.44
2022-12-01T02:02:12.217Z,102870.19
2022-12-01T02:04:42.134Z,102865.03
2022-12-01T02:07:09.823Z,102861.56
2022-12-01T02:09:36.530Z,102865.84
2022-12-01T02:12:21.254Z,102851.25
2022-12-01T02:15:10.590Z,102855.53
2022-12-01T02:17:56.874Z,102856.41
2022-12-01T02:20:26.348Z,102849.53
2022-12-01T02:23:25.645Z,102851.22
2022-12-01T02:26:10.872Z,102854.69
2022-12-01T02:28:53.700Z,102856.44
2022-12-01T02:31:46.087Z,102856.44
2022-12-01T02:34:30.077Z,102849.53
2022-12-01T02:37:35.236Z,102853.00
2022-12-01T02:40:25.560Z,102850.41
2022-12-01T02:43:23.016Z,102851.25
2022-12-01T02:45:56.201Z,102854.69
2022-12-01T02:48:30.196Z,102854.69
2022-12-01T02:51:00.801Z,102850.41
2022-12-01T02:53:27.262Z,102851.25
2022-12-01T02:55:57.660Z,102857.28
2022-12-01T02:58:24.201Z,102860.72
2022-12-01T03:01:18.328Z,102858.16
2022-12-01T03:03:50.738Z,102855.56
2022-12-01T03:06:36.839Z,102861.59
2022-12-01T03:09:33.505Z,102857.28
2022-12-01T03:12:30.879Z,102860.72
2022-12-01T03:15:13.094Z,102860.72
2022-12-01T03:18:04.247Z,102859.88
2022-12-01T03:20:54.283Z,102862.47
2022-12-01T03:23:25.234Z,102860.72
2022-12-01T03:25:54.503Z,102854.69
2022-12-01T03:28:28.741Z,102856.41
2022-12-01T03:31:00.464Z,102852.13
2022-12-01T03:33:50.610Z,102859.88
2022-12-01T03:36:25.476Z,102859.88
2022-12-01T03:38:59.756Z,102856.41
2022-12-01T03:41:35.293Z,102852.94
2022-12-01T03:44:08.920Z,102849.50
2022-12-01T03:46:41.170Z,102852.06
2022-12-01T03:49:09.752Z,102863.28
2022-12-01T03:51:50.560Z,102859.81
2022-12-01T03:54:33.582Z,102858.97
2022-12-01T03:57:05.332Z,102856.38
2022-12-01T03:59:35.844Z,102849.50
2022-12-01T04:02:02.398Z,102849.50
2022-12-01T04:04:28.986Z,102854.66
2022-12-01T04:06:55.383Z,102858.97
2022-12-01T04:09:21.830Z,102860.69
2022-12-01T04:12:06.911Z,102860.66
2022-12-01T04:14:33.527Z,102853.78
2022-12-01T04:16:59.978Z,102868.44
2022-12-01T04:19:26.357Z,102860.69
2022-12-01T04:21:52.740Z,102861.53
2022-12-01T04:24:19.133Z,102856.38
2022-12-01T04:26:46.101Z,102856.34
2022-12-01T04:29:14.486Z,102852.03
2022-12-01T04:31:41.078Z,102853.75
2022-12-01T04:34:08.232Z,102864.94
2022-12-01T04:36:35.256Z,102865.81
2022-12-01T04:39:02.383Z,102861.53
2022-12-01T04:41:29.703Z,102862.34
2022-12-01T04:43:56.457Z,102858.06
2022-12-01T04:46:24.349Z,102864.94
2022-12-01T04:48:51.145Z,102861.47
2022-12-01T04:51:18.230Z,102864.03
2022-12-01T04:53:44.732Z,102864.06
2022-12-01T04:56:11.306Z,102856.31
2022-12-01T04:58:38.539Z,102865.78
2022-12-01T05:01:11.890Z,102863.19
2022-12-01T05:03:44.309Z,102863.19
2022-12-01T05:06:17.187Z,102857.19
2022-12-01T05:08:43.724Z,102858.00
2022-12-01T05:11:12.249Z,102855.41
2022-12-01T05:13:40.236Z,102852.81
2022-12-01T05:16:14.126Z,102857.94
2022-12-01T05:18:41.222Z,102867.38
2022-12-01T05:21:11.084Z,102876.84
2022-12-01T05:23:39.040Z,102876.84
2022-12-01T05:26:07.720Z,102870.81
2022-12-01T05:28:34.708Z,102870.78
2022-12-01T05:31:01.436Z,102870.81
2022-12-01T05:33:29.048Z,102870.78
2022-12-01T05:35:55.727Z,102876.78
2022-12-01T05:38:22.187Z,102868.19
2022-12-01T05:40:52.631Z,102875.91
2022-12-01T05:43:25.230Z,102878.47
2022-12-01T05:45:55.412Z,102875.91
2022-12-01T05:48:22.073Z,102871.63
2022-12-01T05:50:48.552Z,102869.06
2022-12-01T05:53:15.717Z,102878.53
2022-12-01T05:55:42.380Z,102880.22
2022-12-01T05:58:09.584Z,102866.50
2022-12-01T06:00:43.729Z,102870.78
2022-12-01T06:03:11.961Z,102864.75
2022-12-01T06:05:38.403Z,102866.47
2022-12-01T06:08:05.020Z,102861.28
2022-12-01T06:10:31.415Z,102868.97
2022-12-01T06:12:57.844Z,102875.81
2022-12-01T06:15:24.410Z,102875.78
2022-12-01T06:17:50.847Z,102870.63
2022-12-01T06:20:17.339Z,102878.31
2022-12-01T06:22:43.714Z,102878.28
2022-12-01T06:25:11.004Z,102883.44
2022-12-01T06:27:37.574Z,102880.81
2022-12-01T06:30:05.386Z,102878.25
2022-12-01T06:32:31.838Z,102877.34
2022-12-01T06:34:58.261Z,102879.88
2022-12-01T06:37:24.850Z,102879.84
2022-12-01T06:39:52.501Z,102881.53
2022-12-01T06:42:18.952Z,102883.25
2022-12-01T06:44:46.234Z,102878.09
2022-12-01T06:47:12.699Z,102884.06
2022-12-01T06:49:39.181Z,102882.34
2022-12-01T06:52:05.703Z,102886.59
2022-12-01T06:54:32.121Z,102887.41
2022-12-01T06:56:58.601Z,102890.00
2022-12-01T06:59:26.120Z,102902.88
2022-12-01T07:01:53.030Z,102906.28
2022-12-01T07:04:19.743Z,102900.25
2022-12-01T07:06:46.187Z,102910.50
2022-12-01T07:09:12.622Z,102914.78
2022-12-01T07:11:39.217Z,102907.03
2022-12-01T07:14:05.984Z,102916.44
2022-12-01T07:16:32.483Z,102914.69
2022-12-01T07:18:59.968Z,102923.28
2022-12-01T07:21:26.377Z,102924.13
2022-12-01T07:23:52.861Z,102931.00
2022-12-01T07:26:19.346Z,102930.16
2022-12-01T07:28:45.913Z,102930.13
2022-12-01T07:31:17.960Z,102939.59
2022-12-01T07:33:44.604Z,102943.88
2022-12-01T07:36:13.134Z,102944.78
2022-12-01T07:38:40.234Z,102945.63
2022-12-01T07:41:14.884Z,102944.81
2022-12-01T07:43:41.687Z,102941.38
2022-12-01T07:46:11.076Z,102943.13
2022-12-01T07:48:38.966Z,102937.13
2022-12-01T07:51:11.427Z,102951.78
2022-12-01T07:53:38.299Z,102944.06
2022-12-01T07:56:08.554Z,102948.38
2022-12-01T07:58:35.847Z,102956.09
2022-12-01T08:01:07.431Z,102955.25
2022-12-01T08:03:34.011Z,102951.81
2022-12-01T08:06:01.363Z,102963.03
2022-12-01T08:08:27.905Z,102957.06
2022-12-01T08:10:54.415Z,102958.84
2022-12-01T08:13:23.098Z,102964.03
2022-12-01T08:15:49.744Z,102963.19
2022-12-01T08:18:16.152Z,102965.81
2022-12-01T08:20:42.498Z,102959.84
2022-12-01T08:23:08.948Z,102968.44
2022-12-01T08:25:35.425Z,102966.78
2022-12-01T08:28:02.121Z,102966.81
2022-12-01T08:30:28.882Z,102971.13
2022-12-01T08:32:57.092Z,102972.88
2022-12-01T08:35:24.819Z,102970.31
2022-12-01T08:37:54.256Z,102977.22
2022-12-01T08:40:21.838Z,102968.63
2022-12-01T08:42:48.234Z,102972.94
2022-12-01T08:45:14.771Z,102975.56
2022-12-01T08:47:41.174Z,102976.44
2022-12-01T08:50:08.083Z,102972.16
2022-12-01T08:52:35.037Z,102978.19
2022-12-01T08:55:02.212Z,102978.19
2022-12-01T08:57:31.999Z,102978.22
2022-12-01T08:59:58.465Z,102969.63
2022-12-01T09:02:25.155Z,102965.31
2022-12-01T09:04:51.816Z,102973.06
2022-12-01T09:07:24.624Z,102970.47
2022-12-01T09:09:52.908Z,102967.84
2022-12-01T09:12:19.653Z,102970.44
2022-12-01T09:14:48.257Z,102967.00
2022-12-01T09:17:16.071Z,102968.75
2022-12-01T09:19:43.760Z,102970.50
2022-12-01T09:22:11.352Z,102972.25
2022-12-01T09:24:38.210Z,102974.00
2022-12-01T09:27:05.461Z,102975.75
2022-12-01T09:29:32.680Z,102968.91
2022-12-01T09:32:00.457Z,102965.47
2022-12-01T09:34:27.999Z,102964.63
2022-12-01T09:36:57.679Z,102969.00
2022-12-01T09:39:24.672Z,102969.91
2022-12-01T09:42:01.497Z,102969.13
2022-12-01T09:44:36.092Z,102976.06
2022-12-01T09:47:12.527Z,102961.47
2022-12-01T09:49:48.052Z,102967.53
2022-12-01T09:52:17.899Z,102958.94
2022-12-01T09:54:45.238Z,102960.72
2022-12-01T09:57:18.135Z,102959.88
2022-12-01T09:59:46.321Z,102946.13
2022-12-01T10:02:36.286Z,102946.16
2022-12-01T10:05:07.064Z,102942.72
2022-12-01T10:07:40.356Z,102949.56
2022-12-01T10:10:11.696Z,102955.59
2022-12-01T10:12:40.703Z,102953.03
2022-12-01T10:15:13.204Z,102949.59
2022-12-01T10:17:52.855Z,102952.16
2022-12-01T10:20:28.525Z,102954.75
2022-12-01T10:23:30.367Z,102948.72
2022-12-01T10:26:07.666Z,102961.66
2022-12-01T10:28:58.023Z,102956.53
2022-12-01T10:31:34.684Z,102947.13
2022-12-01T10:34:16.958Z,102953.22
2022-12-01T10:36:43.524Z,102945.47
2022-12-01T10:39:18.928Z,102954.09
2022-12-01T10:41:47.900Z,102956.69
2022-12-01T10:44:15.349Z,102947.19
2022-12-01T10:46:50.224Z,102952.38
2022-12-01T10:49:18.309Z,102954.97
2022-12-01T10:51:51.730Z,102947.22
2022-12-01T10:54:19.149Z,102952.34
2022-12-01T10:56:49.343Z,102947.19
2022-12-01T10:59:48.197Z,102947.19
2022-12-01T11:02:19.363Z,102938.56
2022-12-01T11:04:55.350Z,102942.00
2022-12-01T11:07:29.697Z,102939.41
2022-12-01T11:10:07.463Z,102934.22
2022-12-01T11:12:34.206Z,102938.50
2022-12-01T11:15:01.947Z,102941.13
2022-12-01T11:17:39.384Z,102933.34
2022-12-01T11:20:29.512Z,102930.75
2022-12-01T11:23:24.416Z,102925.63
2022-12-01T11:26:23.717Z,102929.03
2022-12-01T11:29:06.793Z,102930.75
2022-12-01T11:31:38.281Z,102923.03
2022-12-01T11:34:08.514Z,102927.31
2022-12-01T11:36:38.806Z,102915.28
2022-12-01T11:39:05.278Z,102914.38
2022-12-01T11:41:37.852Z,102910.97
2022-12-01T11:44:22.421Z,102914.44
2022-12-01T11:47:01.646Z,102904.06
2022-12-01T11:49:47.091Z,102902.38
2022-12-01T11:52:36.459Z,102901.53
2022-12-01T11:55:23.144Z,102897.22
2022-12-01T11:57:52.625Z,102896.34
2022-12-01T12:00:22.585Z,102892.91
2022-12-01T12:03:00.856Z,102896.38
2022-12-01T12:06:18.166Z,102890.31
2022-12-01T12:09:16.277Z,102892.91
2022-12-01T12:12:12.132Z,102886.00
2022-12-01T12:14:46.520Z,102880.84
2022-12-01T12:17:29.322Z,102885.16
2022-12-01T12:20:29.960Z,102889.47
2022-12-01T12:23:24.636Z,102879.13
2022-12-01T12:26:12.596Z,102879.97
2022-12-01T12:29:07.075Z,102879.13
2022-12-01T12:32:05.933Z,102878.25
2022-12-01T12:34:56.071Z,102881.69
2022-12-01T12:37:48.863Z,102875.66
2022-12-01T12:40:21.429Z,102881.69
2022-12-01T12:43:16.315Z,102875.66
2022-12-01T12:46:02.109Z,102877.38
2022-12-01T12:48:36.060Z,102873.03
2022-12-01T12:51:18.983Z,102867.00
2022-12-01T12:53:54.798Z,102866.16
2022-12-01T12:56:25.358Z,102862.72
2022-12-01T12:58:54.340Z,102858.41
2022-12-01T13:01:41.805Z,102865.31
2022-12-01T13:04:17.663Z,102852.41
2022-12-01T13:07:03.480Z,102853.25
2022-12-01T13:09:45.799Z,102857.56
2022-12-01T13:12:23.972Z,102863.59
2022-12-01T13:15:01.454Z,102866.19
2022-12-01T13:17:37.023Z,102862.72
2022-12-01T13:20:07.344Z,102851.53
2022-12-01T13:22:35.910Z,102864.47
2022-12-01T13:25:03.983Z,102853.25
2022-12-01T13:27:35.001Z,102861.88
2022-12-01T13:30:01.867Z,102852.41
2022-12-01T13:32:37.734Z,102857.56
2022-12-01T13:35:22.480Z,102856.69
2022-12-01T13:37:49.149Z,102849.81
2022-12-01T13:40:29.452Z,102842.06
2022-12-01T13:43:06.975Z,102851.53
2022-12-01T13:45:37.302Z,102851.53
2022-12-01T13:48:06.131Z,102845.50
2022-12-01T13:50:55.170Z,102846.38
2022-12-01T13:53:34.279Z,102850.66
2022-12-01T13:56:06.056Z,102840.31
2022-12-01T13:58:32.672Z,102845.50
2022-12-01T14:01:21.277Z,102839.47
2022-12-01T14:04:03.032Z,102840.34
2022-12-01T14:06:46.394Z,102837.75
2022-12-01T14:09:15.828Z,102829.13
2022-12-01T14:11:56.980Z,102834.28
2022-12-01T14:14:26.317Z,102830.84
2022-12-01T14:16:58.894Z,102827.41
2022-12-01T14:19:43.930Z,102828.25
2022-12-01T14:22:32.079Z,102835.16
2022-12-01T14:24:59.626Z,102829.97
2022-12-01T14:27:54.472Z,102828.25
2022-12-01T14:30:39.325Z,102828.28
2022-12-01T14:33:39.785Z,102833.44
2022-12-01T14:36:14.037Z,102836.00
2022-12-01T14:38:40.803Z,102829.94
2022-12-01T14:41:10.540Z,102830.78
2022-12-01T14:43:59.521Z,102830.81
2022-12-01T14:46:30.799Z,102835.09
2022-12-01T14:48:58.607Z,102845.44
2022-12-01T14:51:34.520Z,102841.13
2022-12-01T14:54:06.556Z,102845.44
2022-12-01T14:56:34.263Z,102833.38
2022-12-01T14:59:13.682Z,102832.47
2022-12-01T15:01:40.927Z,102835.06
2022-12-01T15:04:07.390Z,102835.91
2022-12-01T15:06:35.871Z,102838.50
2022-12-01T15:09:33.076Z,102839.34
2022-12-01T15:12:00.914Z,102833.31
2022-12-01T15:14:35.583Z,102832.44
2022-12-01T15:17:05.108Z,102822.09
2022-12-01T15:19:33.478Z,102824.69
2022-12-01T15:22:04.972Z,102828.13
2022-12-01T15:24:33.903Z,102820.31
2022-12-01T15:27:04.035Z,102832.38
2022-12-01T15:29:54.671Z,102830.66
2022-12-01T15:32:23.257Z,102827.22
2022-12-01T15:34:55.885Z,102835.78
2022-12-01T15:37:26.691Z,102834.06
2022-12-01T15:40:47.791Z,102836.63
2022-12-01T15:43:13.511Z,102834.06
2022-12-01T15:45:50.529Z,102837.47
2022-12-01T15:48:26.152Z,102840.03
2022-12-01T15:51:17.054Z,102840.91
2022-12-01T15:53:56.335Z,102845.16
2022-12-01T15:56:34.729Z,102842.59
2022-12-01T15:59:39.790Z,102843.44
2022-12-01T16:02:21.426Z,102841.69
2022-12-01T16:04:48.807Z,102853.72
2022-12-01T16:07:15.866Z,102848.50
2022-12-01T16:09:58.595Z,102845.94
2022-12-01T16:12:27.572Z,102845.06
2022-12-01T16:14:59.868Z,102848.47
2022-12-01T16:17:46.028Z,102851.03
2022-12-01T16:20:24.545Z,102853.59
2022-12-01T16:22:58.829Z,102848.38
2022-12-01T16:25:32.650Z,102853.56
2022-12-01T16:27:59.729Z,102854.38
2022-12-01T16:30:33.994Z,102854.38
2022-12-01T16:33:06.692Z,102850.06
2022-12-01T16:35:34.070Z,102855.22
2022-12-01T16:38:11.833Z,102858.63
2022-12-01T16:40:41.739Z,102857.75
2022-12-01T16:43:14.027Z,102857.72
2022-12-01T16:45:40.493Z,102852.56
2022-12-01T16:48:09.424Z,102852.53
2022-12-01T16:50:36.124Z,102843.94
2022-12-01T16:53:02.542Z,102843.94
2022-12-01T16:55:39.217Z,102843.94
2022-12-01T16:58:05.759Z,102843.88
2022-12-01T17:00:32.923Z,102836.13
2022-12-01T17:02:59.986Z,102841.25
2022-12-01T17:05:26.502Z,102839.53
2022-12-01T17:07:53.204Z,102843.78
2022-12-01T17:10:20.476Z,102835.16
2022-12-01T17:12:46.981Z,102841.13
2022-12-01T17:15:13.383Z,102847.13
2022-12-01T17:17:39.886Z,102844.50
2022-12-01T17:20:07.681Z,102846.19
2022-12-01T17:22:34.617Z,102842.75
2022-12-01T17:25:02.273Z,102843.56
2022-12-01T17:27:29.603Z,102845.28
2022-12-01T17:29:56.103Z,102839.22
2022-12-01T17:32:22.573Z,102839.19
2022-12-01T17:34:49.352Z,102843.47
2022-12-01T17:37:20.667Z,102846.88
2022-12-01T17:39:47.845Z,102852.00
2022-12-01T17:42:14.289Z,102845.97
2022-12-01T17:44:40.719Z,102833.09
2022-12-01T17:47:07.381Z,102850.25
2022-12-01T17:49:36.337Z,102842.50
2022-12-01T17:52:04.762Z,102837.31
2022-12-01T17:54:31.391Z,102845.84
2022-12-01T17:56:57.833Z,102838.09
2022-12-01T17:59:24.464Z,102843.22
2022-12-01T18:01:50.925Z,102836.34
2022-12-01T18:04:17.386Z,102837.16
2022-12-01T18:06:44.242Z,102837.13
2022-12-01T18:09:12.461Z,102840.53
2022-12-01T18:11:38.900Z,102833.63
2022-12-01T18:14:05.326Z,102835.31
2022-12-01T18:16:32.366Z,102834.47
2022-12-01T18:19:00.158Z,102838.75
2022-12-01T18:21:27.896Z,102846.47
2022-12-01T18:23:58.170Z,102842.91
2022-12-01T18:26:25.584Z,102840.34
2022-12-01T18:28:54.888Z,102843.78
2022-12-01T18:31:21.439Z,102845.44
2022-12-01T18:33:47.979Z,102848.03
2022-12-01T18:36:18.236Z,102838.59
2022-12-01T18:38:46.808Z,102837.72
2022-12-01T18:41:13.849Z,102838.56
2022-12-01T18:43:40.380Z,102837.72
2022-12-01T18:46:07.228Z,102841.97
2022-12-01T18:48:35.084Z,102845.38
2022-12-01T18:51:03.862Z,102840.19
2022-12-01T18:53:34.830Z,102842.78
2022-12-01T18:56:05.694Z,102838.47
2022-12-01T18:58:32.861Z,102835.00
2022-12-01T19:01:00.651Z,102839.22
2022-12-01T19:03:31.581Z,102840.94
2022-12-01T19:05:58.420Z,102843.47
2022-12-01T19:08:25.123Z,102846.03
2022-12-01T19:10:59.523Z,102846.00
2022-12-01T19:13:26.049Z,102848.53
2022-12-01T19:15:52.522Z,102847.69
2022-12-01T19:18:18.964Z,102841.66
2022-12-01T19:20:45.418Z,102845.97
2022-12-01T19:23:11.865Z,102841.66
2022-12-01T19:25:38.396Z,102841.69
2022-12-01T19:28:04.840Z,102839.19
2022-12-01T19:30:31.409Z,102835.81
2022-12-01T19:32:57.835Z,102837.56
2022-12-01T19:35:24.271Z,102840.19
2022-12-01T19:37:52.118Z,102835.97
2022-12-01T19:40:18.917Z,102839.47
2022-12-01T19:42:45.478Z,102836.91
2022-12-01T19:45:11.878Z,102836.91
2022-12-01T19:47:39.318Z,102838.66
2022-12-01T19:50:06.275Z,102841.22
2022-12-01T19:52:33.980Z,102842.09
2022-12-01T19:55:00.373Z,102842.94
2022-12-01T19:57:29.669Z,102843.81
2022-12-01T19:59:56.056Z,102850.66
2022-12-01T20:02:28.868Z,102846.44
2022-12-01T20:04:56.569Z,102845.59
2022-12-01T20:07:23.109Z,102839.63
2022-12-01T20:09:50.686Z,102845.56
2022-12-01T20:12:19.911Z,102841.31
2022-12-01T20:14:46.426Z,102839.59
2022-12-01T20:17:16.107Z,102841.31
2022-12-01T20:19:42.621Z,102837.09
2022-12-01T20:22:09.267Z,102840.56
2022-12-01T20:24:41.328Z,102829.44
2022-12-01T20:27:08.175Z,102832.06
2022-12-01T20:29:35.152Z,102838.09
2022-12-01T20:32:03.127Z,102838.09
2022-12-01T20:34:32.817Z,102838.13
2022-12-01T20:36:59.714Z,102832.13
2022-12-01T20:39:27.154Z,102839.03
2022-12-01T20:41:53.696Z,102844.19
2022-12-01T20:44:20.221Z,102844.19
2022-12-01T20:46:47.560Z,102851.94
2022-12-01T20:49:16.180Z,102839.91
2022-12-01T20:51:43.105Z,102835.66
2022-12-01T20:54:27.741Z,102833.94
2022-12-01T20:56:55.053Z,102827.06
2022-12-01T20:59:22.793Z,102828.81
2022-12-01T21:01:49.430Z,102827.09
2022-12-01T21:04:15.866Z,102824.53
2022-12-01T21:06:42.346Z,102825.38
2022-12-01T21:09:08.776Z,102831.41
2022-12-01T21:12:01.848Z,102821.94
2022-12-01T21:14:35.342Z,102825.41
2022-12-01T21:17:12.385Z,102815.97
2022-12-01T21:20:01.778Z,102826.31
2022-12-01T21:22:28.291Z,102821.16
2022-12-01T21:25:07.520Z,102816.03
2022-12-01T21:27:33.999Z,102813.44
2022-12-01T21:30:00.715Z,102812.59
2022-12-01T21:32:31.377Z,102814.31
2022-12-01T21:35:07.459Z,102801.47
2022-12-01T21:37:33.988Z,102805.75
2022-12-01T21:40:00.405Z,102802.31
2022-12-01T21:42:29.858Z,102799.75
2022-12-01T21:44:56.800Z,102801.47
2022-12-01T21:47:26.210Z,102807.50
2022-12-01T21:49:55.984Z,102807.50
2022-12-01T21:52:30.007Z,102804.94
2022-12-01T21:55:02.238Z,102808.41
2022-12-01T21:57:47.145Z,102798.94
2022-12-01T22:00:28.125Z,102794.69
2022-12-01T22:03:04.017Z,102795.53
2022-12-01T22:05:36.677Z,102795.56
2022-12-01T22:08:11.868Z,102793.84
2022-12-01T22:11:04.541Z,102802.44
2022-12-01T22:13:46.385Z,102797.28
2022-12-01T22:16:25.679Z,102789.56
2022-12-01T22:18:54.941Z,102791.25
2022-12-01T22:21:32.031Z,102790.44
2022-12-01T22:24:10.470Z,102791.31
2022-12-01T22:26:38.507Z,102786.16
2022-12-01T22:29:26.325Z,102782.72
2022-12-01T22:32:11.134Z,102779.31
2022-12-01T22:34:38.479Z,102782.72
2022-12-01T22:37:30.864Z,102777.59
2022-12-01T22:39:57.407Z,102778.44
2022-12-01T22:42:31.119Z,102779.31
2022-12-01T22:45:01.387Z,102777.59
2022-12-01T22:47:32.460Z,102776.75
2022-12-01T22:49:59.148Z,102773.28
2022-12-01T22:52:30.222Z,102773.28
2022-12-01T22:54:56.602Z,102779.28
2022-12-01T22:57:32.933Z,102777.56
2022-12-01T23:00:16.059Z,102777.56
2022-12-01T23:02:42.812Z,102774.09
2022-12-01T23:05:22.628Z,102776.69
2022-12-01T23:07:50.398Z,102778.38
2022-12-01T23:10:30.318Z,102775.81
2022-12-01T23:13:01.023Z,102781.84
2022-12-01T23:15:33.954Z,102776.69
2022-12-01T23:18:21.957Z,102771.53
2022-12-01T23:20:59.956Z,102766.38
2022-12-01T23:23:29.380Z,102769.78
2022-12-01T23:25:56.706Z,102764.66
2022-12-01T23:28:24.596Z,102770.63
2022-12-01T23:30:54.795Z,102765.47
2022-12-01T23:33:28.985Z,102759.47
2022-12-01T23:36:04.493Z,102761.19
2022-12-01T23:38:42.244Z,102760.34
2022-12-01T23:41:33.085Z,102759.50
2022-12-01T23:44:03.564Z,102766.34
2022-12-01T23:46:30.176Z,102760.31
2022-12-01T23:49:01.244Z,102756.03
2022-12-01T23:51:45.266Z,102756.88
2022-12-01T23:54:27.630Z,102749.16
2022-12-01T23:56:57.002Z,102743.97
2022-12-01T23:59:24.639Z,102746.56
